createdAt,value
2023-02-27T00:00:40.723Z,100177.94
2023-02-27T00:15:46.456Z,100178.03
2023-02-27T00:30:48.462Z,100177.97
2023-02-27T00:45:50.286Z,100186.56
2023-02-27T01:00:52.192Z,100191.19
2023-02-27T01:15:54.374Z,100189.31
2023-02-27T01:30:56.265Z,100188.94
2023-02-27T01:45:59.733Z,100215.22
2023-02-27T02:01:01.679Z,100246.84
2023-02-27T02:16:32.890Z,100268.50
2023-02-27T02:31:37.384Z,100244.91
2023-02-27T02:47:02.080Z,100127.47
2023-02-27T03:02:05.282Z,100155.22
2023-02-27T03:17:15.050Z,100240.03
2023-02-27T03:32:23.127Z,100235.22
2023-02-27T03:47:25.193Z,100216.00
2023-02-27T04:02:28.432Z,100251.84
2023-02-27T04:17:33.749Z,100243.72
2023-02-27T04:32:57.717Z,100270.38
2023-02-27T04:48:05.818Z,100292.38
2023-02-27T05:03:17.914Z,100271.13
2023-02-27T05:18:22.503Z,100281.66
2023-02-27T05:33:52.023Z,100275.06
2023-02-27T05:49:16.018Z,100295.81
2023-02-27T06:04:18.024Z,100296.78
2023-02-27T06:19:20.229Z,100293.56
2023-02-27T06:34:22.096Z,100281.63
2023-02-27T06:49:23.933Z,100289.59
2023-02-27T07:04:25.820Z,100305.88
2023-02-27T07:19:28.070Z,100323.06
2023-02-27T07:34:29.869Z,100331.28
2023-02-27T07:49:31.709Z,100327.38
2023-02-27T08:04:33.523Z,100343.81
2023-02-27T08:19:36.179Z,100342.47
2023-02-27T08:34:38.151Z,100352.91
2023-02-27T08:49:40.116Z,100331.94
2023-02-27T09:04:41.962Z,100346.63
2023-02-27T09:19:44.351Z,100342.81
2023-02-27T09:34:46.182Z,100360.00
2023-02-27T09:50:03.801Z,100359.59
2023-02-27T10:05:35.767Z,100326.56
2023-02-27T10:20:43.971Z,100330.53
2023-02-27T10:35:46.307Z,100335.63
2023-02-27T10:51:01.275Z,100349.56
2023-02-27T11:06:12.882Z,100354.59
2023-02-27T11:21:30.677Z,100355.09
2023-02-27T11:36:44.781Z,100348.16
2023-02-27T11:52:05.673Z,100356.91
2023-02-27T12:07:41.102Z,100349.28
2023-02-27T12:22:47.752Z,100352.59
2023-02-27T12:37:49.793Z,100377.78
2023-02-27T12:53:27.369Z,100372.72
2023-02-27T13:09:58.412Z,100366.31
2023-02-27T13:25:05.899Z,100372.53
2023-02-27T13:40:37.585Z,100349.34
2023-02-27T13:55:40.209Z,100335.03
2023-02-27T14:11:10.840Z,100330.34
2023-02-27T14:26:20.863Z,100340.25
2023-02-27T14:42:06.808Z,100353.50
2023-02-27T14:57:20.586Z,100367.44
2023-02-27T15:12:24.089Z,100354.31
2023-02-27T15:27:28.568Z,100377.84
2023-02-27T15:42:37.769Z,100395.97
2023-02-27T15:57:40.923Z,100402.09
2023-02-27T16:12:46.474Z,100415.34
2023-02-27T16:27:50.972Z,100428.56
2023-02-27T16:42:54.621Z,100424.94
2023-02-27T16:57:56.462Z,100425.66
2023-02-27T17:12:58.312Z,100434.44
2023-02-27T17:28:00.745Z,100472.81
2023-02-27T17:43:02.650Z,100476.56
2023-02-27T17:58:05.307Z,100502.00
2023-02-27T18:13:07.554Z,100486.72
2023-02-27T18:28:11.478Z,100509.94
2023-02-27T18:43:14.188Z,100498.38
2023-02-27T18:58:16.350Z,100492.28
2023-02-27T19:13:18.309Z,100508.50
2023-02-27T19:28:20.228Z,100526.28
2023-02-27T19:43:22.063Z,100536.72
2023-02-27T19:58:23.874Z,100548.31
2023-02-27T20:13:26.826Z,100563.00
2023-02-27T20:28:29.026Z,100590.38
2023-02-27T20:43:31.145Z,100587.28
2023-02-27T20:58:34.198Z,100614.25
2023-02-27T21:13:36.597Z,100605.75
2023-02-27T21:28:43.355Z,100630.41
2023-02-27T21:43:45.169Z,100637.25
2023-02-27T21:58:46.976Z,100654.63
2023-02-27T22:13:48.909Z,100655.56
2023-02-27T22:28:58.035Z,100672.44
2023-02-27T22:44:01.062Z,100681.03
2023-02-27T22:59:03.756Z,100699.00
2023-02-27T23:14:05.663Z,100720.91
2023-02-27T23:29:08.253Z,100713.56
2023-02-27T23:44:10.114Z,100721.19
2023-02-27T23:59:11.917Z,100737.50
